Terminal Aerodrome Forecast
Issued by NWS Duluth, MN

Home | Current Version | Previous Version | Text Only | Print | Product List | Glossary On
Versions: 1 2 3 4 5 6 7 8 9 10 11 12 13 14 15 16 17 18 19 20 21 22 23 24
000
FTUS43 KDLH 060500
TAFDLH
TAF
KDLH 060534Z 0606/0706 22010KT P6SM SCT080 WS015/24035KT
     FM061200 23010KT P6SM SCT025 BKN050
     FM061600 26010KT P6SM SCT030
     FM062000 28014KT P6SM SCT035
     FM070200 23008KT P6SM BKN050=

USA.gov is the U.S. government's official web portal to all federal, state and local government web resources and services.